CAO91L ZSNJ-ZSQD
Flight info
| Callsign | CAO91L |
|---|---|
| Flight time | N/A |
| Altitude | 29100 |
| Route | OF52X OF W178 RUXEL DCT GURIL DCT MABEB |
| Aircraft | B77L/H-SDE1E2E3FGHIJ2J3J4J5M1RWXY/LB1D1 |
Departure
| Time | 2026-04-27 05:30 |
|---|---|
| Airport | Nanjing Lukou International Airport (ZSNJ) |
Arrival
| Time | N/A |
|---|---|
| Airport | Qingdao Jiaodong International Airport (ZSQD) |
| Time | Latitude | Longitude | Altitude | Speed | Heading |
|---|---|---|---|---|---|
| 2026-04-27 05:00 | 31.74252 | 118.87056 | 63 ft | 0 kts | 148° |
| 2026-04-27 05:13 | 31.74253 | 118.87056 | 54 ft | 1 kts | 148° |
| 2026-04-27 05:14 | 31.74273 | 118.87041 | 63 ft | 4 kts | 148° |
| 2026-04-27 05:14 | 31.74293 | 118.87026 | 61 ft | 2 kts | 148° |
| 2026-04-27 05:14 | 31.74316 | 118.87014 | 63 ft | 4 kts | 176° |
| 2026-04-27 05:14 | 31.74339 | 118.87021 | 54 ft | 4 kts | 225° |
| 2026-04-27 05:15 | 31.74355 | 118.87046 | 54 ft | 4 kts | 241° |
| 2026-04-27 05:15 | 31.74361 | 118.87059 | 57 ft | 0 kts | 238° |
| 2026-04-27 05:19 | 31.74360 | 118.87057 | 63 ft | 1 kts | 238° |
| 2026-04-27 05:19 | 31.74352 | 118.87043 | 60 ft | 3 kts | 238° |
| 2026-04-27 05:19 | 31.74336 | 118.87012 | 56 ft | 6 kts | 237° |
| 2026-04-27 05:19 | 31.74313 | 118.86967 | 55 ft | 7 kts | 246° |
| 2026-04-27 05:20 | 31.74333 | 118.86916 | 63 ft | 8 kts | 329° |
| 2026-04-27 05:20 | 31.74358 | 118.86862 | 63 ft | 9 kts | 253° |
| 2026-04-27 05:20 | 31.74324 | 118.86791 | 60 ft | 11 kts | 239° |
| 2026-04-27 05:20 | 31.74279 | 118.86706 | 54 ft | 14 kts | 238° |
| 2026-04-27 05:21 | 31.74225 | 118.86603 | 63 ft | 16 kts | 237° |
| 2026-04-27 05:21 | 31.74160 | 118.86485 | 56 ft | 18 kts | 237° |
| 2026-04-27 05:21 | 31.74089 | 118.86355 | 61 ft | 19 kts | 237° |
| 2026-04-27 05:21 | 31.74019 | 118.86224 | 54 ft | 19 kts | 238° |
| 2026-04-27 05:22 | 31.73950 | 118.86091 | 62 ft | 19 kts | 239° |
| 2026-04-27 05:22 | 31.73877 | 118.85962 | 54 ft | 19 kts | 235° |
| 2026-04-27 05:22 | 31.73812 | 118.85855 | 54 ft | 12 kts | 210° |
| 2026-04-27 05:22 | 31.73737 | 118.85881 | 56 ft | 12 kts | 148° |
| 2026-04-27 05:23 | 31.73666 | 118.85932 | 59 ft | 12 kts | 148° |
| 2026-04-27 05:23 | 31.73594 | 118.85985 | 54 ft | 14 kts | 148° |
| 2026-04-27 05:23 | 31.73499 | 118.86056 | 55 ft | 17 kts | 147° |
| 2026-04-27 05:23 | 31.73397 | 118.86132 | 56 ft | 17 kts | 148° |
| 2026-04-27 05:24 | 31.73296 | 118.86206 | 54 ft | 17 kts | 148° |
| 2026-04-27 05:24 | 31.73195 | 118.86281 | 57 ft | 17 kts | 148° |
| 2026-04-27 05:24 | 31.73092 | 118.86356 | 58 ft | 17 kts | 148° |
| 2026-04-27 05:24 | 31.72990 | 118.86431 | 56 ft | 17 kts | 148° |
| 2026-04-27 05:25 | 31.72888 | 118.86506 | 58 ft | 17 kts | 147° |
| 2026-04-27 05:25 | 31.72788 | 118.86580 | 63 ft | 17 kts | 148° |
| 2026-04-27 05:25 | 31.72687 | 118.86655 | 60 ft | 17 kts | 148° |
| 2026-04-27 05:25 | 31.72602 | 118.86732 | 61 ft | 15 kts | 114° |
| 2026-04-27 05:26 | 31.72637 | 118.86842 | 54 ft | 15 kts | 59° |
| 2026-04-27 05:26 | 31.72690 | 118.86946 | 60 ft | 15 kts | 58° |
| 2026-04-27 05:26 | 31.72746 | 118.87048 | 54 ft | 15 kts | 57° |
| 2026-04-27 05:26 | 31.72803 | 118.87149 | 59 ft | 15 kts | 57° |
| 2026-04-27 05:27 | 31.72857 | 118.87252 | 54 ft | 15 kts | 58° |
| 2026-04-27 05:27 | 31.72911 | 118.87354 | 57 ft | 15 kts | 58° |
| 2026-04-27 05:27 | 31.72966 | 118.87456 | 54 ft | 15 kts | 58° |
| 2026-04-27 05:27 | 31.73021 | 118.87558 | 61 ft | 15 kts | 57° |
| 2026-04-27 05:28 | 31.73075 | 118.87661 | 63 ft | 15 kts | 58° |
| 2026-04-27 05:28 | 31.73128 | 118.87765 | 56 ft | 15 kts | 58° |
| 2026-04-27 05:28 | 31.73142 | 118.87837 | 55 ft | 9 kts | 116° |
| 2026-04-27 05:28 | 31.73093 | 118.87881 | 63 ft | 9 kts | 149° |
| 2026-04-27 05:29 | 31.73030 | 118.87908 | 59 ft | 10 kts | 183° |
| 2026-04-27 05:29 | 31.72978 | 118.87856 | 62 ft | 10 kts | 239° |
| 2026-04-27 05:29 | 31.72971 | 118.87845 | 61 ft | 1 kts | 237° |
| 2026-04-27 05:29 | 31.72969 | 118.87841 | 61 ft | 0 kts | 237° |
| 2026-04-27 05:30 | 31.72931 | 118.87770 | 52 ft | 42 kts | 237° |
| 2026-04-27 05:30 | 31.72628 | 118.87202 | 56 ft | 118 kts | 238° |
| 2026-04-27 05:30 | 31.72087 | 118.86169 | 145 ft | 169 kts | 240° |
| 2026-04-27 05:30 | 31.71462 | 118.84946 | 728 ft | 179 kts | 239° |
| 2026-04-27 05:31 | 31.70775 | 118.83677 | 1422 ft | 189 kts | 238° |
| 2026-04-27 05:31 | 31.70023 | 118.82309 | 1922 ft | 213 kts | 238° |
| 2026-04-27 05:31 | 31.69183 | 118.80792 | 2465 ft | 232 kts | 236° |
| 2026-04-27 05:31 | 31.68283 | 118.79179 | 3369 ft | 238 kts | 237° |
| 2026-04-27 05:32 | 31.67581 | 118.77418 | 4189 ft | 242 kts | 261° |
| 2026-04-27 05:32 | 31.67522 | 118.75452 | 5041 ft | 246 kts | 269° |
| 2026-04-27 05:32 | 31.67507 | 118.73459 | 6052 ft | 242 kts | 269° |
| 2026-04-27 05:32 | 31.67486 | 118.71472 | 6926 ft | 245 kts | 269° |
| 2026-04-27 05:33 | 31.67465 | 118.69444 | 7752 ft | 250 kts | 269° |
| 2026-04-27 05:33 | 31.67442 | 118.67393 | 8655 ft | 252 kts | 269° |
| 2026-04-27 05:33 | 31.67419 | 118.65333 | 9451 ft | 252 kts | 269° |
| 2026-04-27 05:33 | 31.67393 | 118.63265 | 9902 ft | 254 kts | 270° |
| 2026-04-27 05:34 | 31.67490 | 118.61178 | 9902 ft | 258 kts | 284° |
| 2026-04-27 05:34 | 31.68272 | 118.59286 | 10187 ft | 259 kts | 309° |
| 2026-04-27 05:34 | 31.69644 | 118.57902 | 11074 ft | 263 kts | 328° |
| 2026-04-27 05:34 | 31.71362 | 118.57170 | 12029 ft | 270 kts | 348° |
| 2026-04-27 05:35 | 31.73261 | 118.57257 | 12917 ft | 283 kts | 10° |
| 2026-04-27 05:35 | 31.75054 | 118.58338 | 13689 ft | 301 kts | 38° |
| 2026-04-27 05:35 | 31.76394 | 118.60274 | 14449 ft | 312 kts | 53° |
| 2026-04-27 05:35 | 31.77591 | 118.62403 | 15189 ft | 318 kts | 52° |
| 2026-04-27 05:36 | 31.78847 | 118.64569 | 16014 ft | 323 kts | 52° |
| 2026-04-27 05:36 | 31.80198 | 118.66678 | 16770 ft | 322 kts | 39° |
| 2026-04-27 05:36 | 31.82092 | 118.68014 | 17327 ft | 319 kts | 9° |
| 2026-04-27 05:36 | 31.84307 | 118.68125 | 17558 ft | 326 kts | 341° |
| 2026-04-27 05:37 | 31.86560 | 118.67437 | 17724 ft | 347 kts | 341° |
| 2026-04-27 05:37 | 31.89023 | 118.66843 | 17908 ft | 375 kts | 343° |
| 2026-04-27 05:37 | 31.91671 | 118.66278 | 18142 ft | 398 kts | 344° |
| 2026-04-27 05:37 | 31.94409 | 118.65697 | 18681 ft | 410 kts | 344° |
| 2026-04-27 05:38 | 31.97240 | 118.65085 | 19419 ft | 416 kts | 344° |
| 2026-04-27 05:38 | 32.00105 | 118.64456 | 20258 ft | 419 kts | 344° |
| 2026-04-27 05:38 | 32.02990 | 118.63820 | 21063 ft | 423 kts | 344° |
| 2026-04-27 05:38 | 32.05888 | 118.63186 | 21857 ft | 425 kts | 344° |
| 2026-04-27 05:39 | 32.08816 | 118.62545 | 22516 ft | 430 kts | 344° |
| 2026-04-27 05:39 | 32.11773 | 118.61893 | 23151 ft | 434 kts | 344° |
| 2026-04-27 05:39 | 32.14773 | 118.61231 | 23784 ft | 439 kts | 344° |
| 2026-04-27 05:39 | 32.17786 | 118.60564 | 24466 ft | 442 kts | 343° |
| 2026-04-27 05:40 | 32.20814 | 118.59889 | 25098 ft | 445 kts | 343° |
| 2026-04-27 05:40 | 32.23836 | 118.59209 | 25722 ft | 448 kts | 343° |
| 2026-04-27 05:40 | 32.26909 | 118.58516 | 26350 ft | 452 kts | 343° |
| 2026-04-27 05:40 | 32.29994 | 118.57822 | 26939 ft | 454 kts | 342° |
| 2026-04-27 05:41 | 32.33122 | 118.57123 | 27514 ft | 456 kts | 342° |
| 2026-04-27 05:41 | 32.36233 | 118.56429 | 28187 ft | 454 kts | 342° |
| 2026-04-27 05:41 | 32.39327 | 118.55739 | 28820 ft | 449 kts | 342° |
| 2026-04-27 05:41 | 32.42400 | 118.55050 | 29024 ft | 451 kts | 341° |
| 2026-04-27 05:42 | 32.45489 | 118.54353 | 29014 ft | 450 kts | 341° |